createdAt,value
2022-12-09T00:02:12.907Z,4.64
2022-12-09T00:07:12.797Z,3.83
2022-12-09T00:12:09.470Z,4.18
2022-12-09T00:19:01.141Z,4.84
2022-12-09T00:25:58.980Z,4.65
2022-12-09T00:30:58.781Z,4.33
2022-12-09T00:35:58.968Z,4.86
2022-12-09T00:40:58.890Z,5.04
2022-12-09T00:52:17.657Z,4.51
2022-12-09T00:57:17.521Z,4.76
2022-12-09T01:02:17.621Z,4.72
2022-12-09T01:07:17.309Z,4.73
2022-12-09T01:12:17.280Z,4.69
2022-12-09T01:17:17.444Z,4.64
2022-12-09T01:24:35.033Z,4.57
2022-12-09T01:29:33.993Z,4.26
2022-12-09T01:34:33.797Z,4.69
2022-12-09T01:39:33.874Z,4.94
2022-12-09T01:44:33.865Z,4.86
2022-12-09T01:49:33.652Z,4.18
2022-12-09T01:54:35.279Z,3.89
2022-12-09T01:59:34.141Z,3.90
2022-12-09T02:04:33.679Z,3.78
2022-12-09T02:09:33.462Z,3.57
2022-12-09T02:14:36.299Z,3.75
2022-12-09T02:19:33.196Z,3.71
2022-12-09T02:24:33.442Z,3.65
2022-12-09T02:29:33.089Z,4.29
2022-12-09T02:34:34.321Z,4.25
2022-12-09T02:39:34.283Z,4.58
2022-12-09T02:44:33.121Z,4.65
2022-12-09T02:49:33.201Z,4.36
2022-12-09T02:54:32.898Z,4.14
2022-12-09T02:59:32.832Z,3.44
2022-12-09T03:04:32.983Z,3.34
2022-12-09T03:09:32.971Z,3.49
2022-12-09T03:14:35.468Z,3.31
2022-12-09T03:19:32.596Z,2.64
2022-12-09T03:24:32.521Z,3.21
2022-12-09T03:29:32.238Z,3.16
2022-12-09T03:34:32.308Z,3.39
2022-12-09T04:00:06.392Z,3.64
2022-12-09T04:05:05.775Z,3.71
2022-12-09T04:10:05.867Z,4.29
2022-12-09T04:15:05.337Z,3.58
2022-12-09T04:20:06.328Z,3.88
2022-12-09T04:25:05.248Z,4.34
2022-12-09T04:30:06.373Z,4.42
2022-12-09T04:35:04.896Z,4.55
2022-12-09T04:40:05.872Z,4.62
2022-12-09T04:45:04.901Z,4.55
2022-12-09T04:50:08.208Z,4.55
2022-12-09T04:55:04.731Z,4.14
2022-12-09T05:00:04.728Z,4.33
2022-12-09T05:05:04.900Z,3.40
2022-12-09T05:10:05.159Z,3.43
2022-12-09T05:15:04.606Z,3.46
2022-12-09T05:20:04.486Z,3.18
2022-12-09T05:25:04.616Z,3.47
2022-12-09T05:30:04.555Z,3.75
2022-12-09T05:35:04.509Z,3.62
2022-12-09T05:40:04.714Z,3.25
2022-12-09T05:45:04.275Z,3.70
2022-12-09T05:50:08.617Z,3.57
2022-12-09T05:55:04.021Z,3.46
2022-12-09T06:01:21.585Z,4.36
2022-12-09T06:06:31.677Z,4.69
2022-12-09T06:11:21.965Z,4.47
2022-12-09T06:16:22.350Z,4.51
2022-12-09T06:21:21.417Z,4.57
2022-12-09T06:26:21.552Z,4.59
2022-12-09T06:31:29.141Z,4.86
2022-12-09T06:38:30.715Z,4.70
2022-12-09T06:44:47.881Z,4.80
2022-12-09T06:49:47.726Z,4.61
2022-12-09T06:54:47.457Z,4.51
2022-12-09T06:59:55.077Z,4.70
2022-12-09T07:06:16.398Z,4.64
2022-12-09T07:11:16.062Z,4.65
2022-12-09T07:16:15.738Z,4.67
2022-12-09T07:21:15.739Z,4.36
2022-12-09T07:26:15.741Z,4.42
2022-12-09T07:31:15.672Z,4.18
2022-12-09T07:36:20.723Z,4.72
2022-12-09T07:41:16.420Z,4.80
2022-12-09T07:46:15.722Z,4.83
2022-12-09T07:51:15.157Z,4.92
2022-12-09T07:56:18.513Z,4.95
2022-12-09T08:01:15.384Z,4.80
2022-12-09T08:06:15.264Z,5.13
2022-12-09T08:11:15.350Z,5.16
2022-12-09T08:16:15.068Z,5.22
2022-12-09T08:21:14.747Z,5.27
2022-12-09T08:26:14.699Z,5.34
2022-12-09T08:31:14.840Z,5.31
2022-12-09T08:36:14.670Z,5.46
2022-12-09T08:41:14.371Z,5.41
2022-12-09T08:46:14.643Z,5.49
2022-12-09T08:51:14.589Z,5.41
2022-12-09T08:56:17.608Z,5.45
2022-12-09T09:01:14.822Z,5.12
2022-12-09T09:06:21.423Z,5.92
2022-12-09T09:11:21.555Z,6.19
2022-12-09T09:16:22.092Z,6.26
2022-12-09T09:21:14.000Z,6.14
2022-12-09T09:26:14.502Z,6.26
2022-12-09T09:31:13.885Z,6.09
2022-12-09T09:36:14.187Z,5.60
2022-12-09T09:41:13.923Z,5.75
2022-12-09T09:46:13.960Z,5.56
2022-12-09T09:51:13.840Z,5.56
2022-12-09T09:56:24.200Z,5.77
2022-12-09T10:01:13.578Z,4.98
2022-12-09T10:06:13.859Z,5.28
2022-12-09T10:11:13.925Z,5.34
2022-12-09T10:16:13.515Z,5.35
2022-12-09T10:21:13.069Z,5.32
2022-12-09T10:26:13.309Z,5.57
2022-12-09T10:31:20.404Z,5.95
2022-12-09T10:36:13.029Z,6.00
2022-12-09T10:41:13.222Z,6.01
2022-12-09T10:46:18.417Z,5.50
2022-12-09T10:51:14.167Z,5.59
2022-12-09T10:56:16.115Z,5.66
2022-12-09T11:01:12.827Z,5.67
2022-12-09T11:06:12.772Z,6.07
2022-12-09T11:11:12.854Z,6.11
2022-12-09T11:16:12.554Z,6.06
2022-12-09T11:21:12.869Z,5.92
2022-12-09T11:26:12.339Z,5.25
2022-12-09T11:31:29.035Z,5.55
2022-12-09T11:36:13.313Z,5.70
2022-12-09T11:41:11.984Z,5.83
2022-12-09T11:46:11.983Z,5.88
2022-12-09T11:51:11.895Z,6.14
2022-12-09T11:56:14.913Z,6.16
2022-12-09T12:01:11.836Z,6.03
2022-12-09T12:06:11.747Z,6.62
2022-12-09T12:11:15.328Z,6.99
2022-12-09T12:16:11.616Z,6.44
2022-12-09T12:21:11.586Z,6.14
2022-12-09T12:26:11.465Z,6.25
2022-12-09T12:31:11.314Z,6.21
2022-12-09T12:36:11.426Z,6.41
2022-12-09T12:41:11.299Z,6.72
2022-12-09T12:46:11.932Z,6.90
2022-12-09T12:51:11.059Z,6.84
2022-12-09T12:56:14.153Z,6.48
2022-12-09T13:01:11.095Z,6.06
2022-12-09T13:06:10.939Z,6.25
2022-12-09T13:11:10.813Z,6.43
2022-12-09T13:16:10.875Z,6.07
2022-12-09T13:21:10.661Z,5.75
2022-12-09T13:26:10.650Z,5.63
2022-12-09T13:31:10.573Z,5.81
2022-12-09T13:36:10.528Z,5.98
2022-12-09T13:41:10.495Z,5.86
2022-12-09T13:46:10.536Z,5.85
2022-12-09T13:51:10.262Z,5.70
2022-12-09T13:56:13.357Z,5.86
2022-12-09T14:01:10.166Z,5.46
2022-12-09T14:06:10.191Z,5.57
2022-12-09T14:11:10.113Z,5.71
2022-12-09T14:16:10.244Z,5.38
2022-12-09T14:21:17.360Z,5.89
2022-12-09T14:26:17.306Z,5.95
2022-12-09T14:31:09.820Z,5.60
2022-12-09T14:36:09.748Z,5.50
2022-12-09T14:41:09.663Z,5.53
2022-12-09T14:46:09.616Z,5.74
2022-12-09T14:51:10.074Z,5.55
2022-12-09T14:56:12.643Z,5.37
2022-12-09T15:01:09.367Z,4.98
2022-12-09T15:06:09.405Z,5.23
2022-12-09T15:11:09.218Z,5.32
2022-12-09T15:16:09.282Z,5.71
2022-12-09T15:21:09.358Z,5.77
2022-12-09T15:26:09.268Z,5.38
2022-12-09T15:31:09.073Z,5.23
2022-12-09T15:36:18.187Z,4.94
2022-12-09T15:41:10.716Z,4.76
2022-12-09T15:46:10.740Z,4.75
2022-12-09T15:51:08.800Z,5.13
2022-12-09T15:56:11.964Z,4.96
2022-12-09T16:01:08.695Z,4.95
2022-12-09T16:06:08.853Z,5.23
2022-12-09T16:11:08.575Z,4.96
2022-12-09T16:16:08.707Z,4.88
2022-12-09T16:21:08.485Z,4.77
2022-12-09T16:26:08.383Z,4.91
2022-12-09T16:31:08.392Z,5.02
2022-12-09T16:36:08.459Z,5.01
2022-12-09T16:41:08.172Z,4.80
2022-12-09T16:46:08.273Z,4.59
2022-12-09T16:51:08.051Z,4.55
2022-12-09T19:30:38.334Z,4.58
2022-12-09T19:35:27.453Z,4.69
2022-12-09T19:40:27.545Z,4.99
2022-12-09T19:45:27.640Z,5.40
2022-12-09T19:50:27.401Z,5.04
2022-12-09T19:55:27.224Z,5.27
2022-12-09T20:00:27.224Z,5.43
2022-12-09T20:05:35.037Z,5.34
2022-12-09T20:10:34.255Z,5.55
2022-12-09T20:15:34.030Z,5.37
2022-12-09T20:20:29.926Z,5.12
2022-12-09T20:25:26.954Z,4.83
2022-12-09T20:30:26.802Z,5.32
2022-12-09T20:35:26.948Z,4.91
2022-12-09T20:40:26.672Z,5.09
2022-12-09T20:45:26.696Z,5.25
2022-12-09T20:50:26.801Z,5.22
2022-12-09T20:55:26.508Z,4.88
2022-12-09T21:00:26.479Z,5.02
2022-12-09T21:05:26.593Z,4.94
2022-12-09T21:10:26.415Z,4.84
2022-12-09T21:15:26.405Z,4.89
2022-12-09T21:20:41.449Z,4.98
2022-12-09T21:25:27.130Z,4.34
2022-12-09T21:30:26.144Z,4.70
2022-12-09T21:35:25.961Z,4.75
2022-12-09T21:40:27.933Z,4.64
2022-12-09T21:45:25.819Z,4.40
2022-12-09T21:50:25.832Z,4.32
2022-12-09T21:55:25.764Z,4.57
2022-12-09T22:00:25.722Z,4.36
2022-12-09T22:05:25.584Z,4.26
2022-12-09T22:10:25.699Z,4.69
2022-12-09T22:15:25.529Z,4.47
2022-12-09T22:25:26.437Z,4.08
2022-12-09T22:30:25.326Z,4.43
2022-12-09T22:35:25.285Z,4.28
2022-12-09T22:40:25.299Z,4.61
2022-12-09T22:45:25.132Z,4.44
2022-12-09T22:50:25.116Z,4.22
2022-12-09T22:55:26.528Z,4.51
2022-12-09T23:00:24.890Z,4.57
2022-12-09T23:05:24.818Z,4.50
2022-12-09T23:10:24.885Z,4.72
2022-12-09T23:15:24.966Z,4.50
2022-12-09T23:20:27.798Z,4.26
2022-12-09T23:25:24.607Z,4.01
2022-12-09T23:30:24.647Z,4.04
2022-12-09T23:35:24.484Z,4.22
2022-12-09T23:40:24.536Z,3.98
2022-12-09T23:45:24.420Z,4.07
2022-12-09T23:50:24.369Z,4.10
2022-12-09T23:55:24.129Z,3.97
